Time;durP1;ratioP1;P1;durP2;ratioP2;P2;SDS_P1;SDS_P2;PMS_P1;PMS_P2;Temp;Humidity;BMP_temperature;BMP_pressure;BME280_temperature;BME280_humidity;BME280_pressure;Samples;Min_cycle;Max_cycle;Signal;HPM_P1;HPM_P2
2023/10/12 00:02:13;;;;;;;0.43;0.43;;;;;;;;;;5000540;28;20046;-69
2023/10/12 00:04:43;;;;;;;0.08;0.08;;;;;;;;;;4993049;28;20069;-69
2023/10/12 00:07:25;;;;;;;0.40;0.22;;;;;;;;;;4997853;28;20053;-69
2023/10/12 00:12:50;;;;;;;0.00;0.00;;;;;;;;;;4998861;28;20061;-69
2023/10/12 00:17:48;;;;;;;0.30;0.30;;;;;;;;;;5004528;28;20526;-69
2023/10/12 00:20:38;;;;;;;0.30;0.30;;;;;;;;;;5003182;28;20500;-69
2023/10/12 00:23:09;;;;;;;0.75;0.75;;;;;;;;;;5002790;28;20523;-69
2023/10/12 00:25:54;;;;;;;0.10;0.10;;;;;;;;;;5005754;28;20045;-69
2023/10/12 00:28:23;;;;;;;0.43;0.43;;;;;;;;;;5003554;28;20415;-69
2023/10/12 00:31:04;;;;;;;0.55;0.30;;;;;;;;;;5005560;28;20042;-69
2023/10/12 00:33:32;;;;;;;0.22;0.22;;;;;;;;;;5001202;28;20097;-69
2023/10/12 00:36:01;;;;;;;0.00;0.00;;;;;;;;;;5001024;28;20050;-69
2023/10/12 00:38:30;;;;;;;0.00;0.00;;;;;;;;;;5001739;28;20056;-69
2023/10/12 00:41:00;;;;;;;0.10;0.10;;;;;;;;;;5001983;28;20125;-68
2023/10/12 00:43:49;;;;;;;0.00;0.00;;;;;;;;;;5001136;28;20038;-69
2023/10/12 00:46:21;;;;;;;0.20;0.20;;;;;;;;;;5002134;28;20042;-69
2023/10/12 00:48:55;;;;;;;1.17;0.70;;;;;;;;;;5000731;28;20045;-69
2023/10/12 00:51:23;;;;;;;0.05;0.05;;;;;;;;;;4999083;28;20088;-69
2023/10/12 00:53:57;;;;;;;0.00;0.00;;;;;;;;;;4997263;28;20069;-69
2023/10/12 00:56:28;;;;;;;0.10;0.10;;;;;;;;;;4997718;28;20439;-68
2023/10/12 00:58:56;;;;;;;9.52;2.65;;;;;;;;;;4996137;28;20053;-68
2023/10/12 01:01:24;;;;;;;0.08;0.08;;;;;;;;;;4998019;28;20100;-69
2023/10/12 01:03:52;;;;;;;0.40;0.40;;;;;;;;;;5002019;28;20042;-70
2023/10/12 01:09:18;;;;;;;22.23;19.67;;;;;;;;;;4996012;28;20061;-69
2023/10/12 01:11:58;;;;;;;0.55;0.55;;;;;;;;;;4996142;28;20052;-69
2023/10/12 01:14:28;;;;;;;0.10;0.10;;;;;;;;;;4999858;28;20045;-69
2023/10/12 01:16:58;;;;;;;0.10;0.10;;;;;;;;;;5002042;28;20465;-69
2023/10/12 01:19:31;;;;;;;1.05;1.05;;;;;;;;;;4997566;28;20427;-69
2023/10/12 01:22:11;;;;;;;0.20;0.20;;;;;;;;;;5004304;28;20503;-69
2023/10/12 01:24:57;;;;;;;0.10;0.10;;;;;;;;;;5000562;28;20058;-69
2023/10/12 01:27:26;;;;;;;0.20;0.20;;;;;;;;;;5000230;28;20109;-68
2023/10/12 01:29:59;;;;;;;38.63;35.47;;;;;;;;;;4997829;28;20460;-69
2023/10/12 01:32:36;;;;;;;0.30;0.30;;;;;;;;;;5002019;28;20140;-69
2023/10/12 01:35:04;;;;;;;1.75;1.60;;;;;;;;;;5001275;28;20064;-69
2023/10/12 01:37:42;;;;;;;28.92;26.85;;;;;;;;;;5003463;28;20050;-69
2023/10/12 01:40:12;;;;;;;0.93;0.82;;;;;;;;;;5002464;28;20504;-69
2023/10/12 01:45:40;;;;;;;0.63;0.63;;;;;;;;;;5004100;28;20058;-69
2023/10/12 01:48:11;;;;;;;1.67;1.17;;;;;;;;;;5017827;28;20053;-69
2023/10/12 01:50:40;;;;;;;0.20;0.20;;;;;;;;;;5002737;28;20053;-69
2023/10/12 01:53:34;;;;;;;0.43;0.43;;;;;;;;;;5000383;28;20508;-69
2023/10/12 01:56:00;;;;;;;;;;;;;;;;;;4995443;28;20062;-69
2023/10/12 01:58:28;;;;;;;0.00;0.00;;;;;;;;;;4998281;28;19925;-69
2023/10/12 02:01:05;;;;;;;0.08;0.08;;;;;;;;;;5002114;28;20120;-70
2023/10/12 02:03:34;;;;;;;0.10;0.10;;;;;;;;;;4994546;28;20042;-69
2023/10/12 02:06:03;;;;;;;0.00;0.00;;;;;;;;;;4997156;28;20054;-69
2023/10/12 02:08:52;;;;;;;0.00;0.00;;;;;;;;;;4999529;28;20554;-69
2023/10/12 02:13:48;;;;;;;0.80;0.43;;;;;;;;;;5009746;28;20046;-69
2023/10/12 02:16:53;;;;;;;0.10;0.10;;;;;;;;;;5000662;28;20045;-69
2023/10/12 02:19:19;;;;;;;0.10;0.10;;;;;;;;;;5000620;28;20054;-69
2023/10/12 02:21:46;;;;;;;0.00;0.00;;;;;;;;;;5002210;28;20057;-68
2023/10/12 02:24:14;;;;;;;0.55;0.55;;;;;;;;;;5002196;28;20162;-69
2023/10/12 02:29:18;;;;;;;0.93;0.93;;;;;;;;;;5004665;28;20054;-69
2023/10/12 02:34:17;;;;;;;;;;;;;;;;;;5000589;28;20056;-70
2023/10/12 02:39:37;;;;;;;0.10;0.10;;;;;;;;;;5002443;28;20057;-69
2023/10/12 02:47:23;;;;;;;0.30;0.30;;;;;;;;;;5002206;28;20093;-69
2023/10/12 02:49:59;;;;;;;0.20;0.20;;;;;;;;;;5000314;28;20050;-70
2023/10/12 02:52:32;;;;;;;0.00;0.00;;;;;;;;;;5030230;23;20041;-70
2023/10/12 02:55:08;;;;;;;0.10;0.10;;;;;;;;;;5044763;28;20525;-70
2023/10/12 02:57:37;;;;;;;1.13;1.10;;;;;;;;;;5026905;28;20148;-70
2023/10/12 03:00:18;;;;;;;2.33;2.13;;;;;;;;;;5024715;28;20049;-70
2023/10/12 03:02:46;;;;;;;0.77;0.77;;;;;;;;;;5024546;28;20052;-70
2023/10/12 03:05:17;;;;;;;0.10;0.10;;;;;;;;;;5020699;28;20050;-70
2023/10/12 03:07:46;;;;;;;0.20;0.20;;;;;;;;;;5022090;28;20049;-70
2023/10/12 03:10:25;;;;;;;0.22;0.22;;;;;;;;;;5026946;28;20057;-70
2023/10/12 03:12:55;;;;;;;0.00;0.00;;;;;;;;;;5024632;28;20140;-70
2023/10/12 03:15:42;;;;;;;0.08;0.08;;;;;;;;;;5026039;28;20073;-70
2023/10/12 03:18:11;;;;;;;0.45;0.45;;;;;;;;;;5013851;28;20511;-70
2023/10/12 03:21:02;;;;;;;0.15;0.08;;;;;;;;;;5021271;28;20074;-70
2023/10/12 03:23:29;;;;;;;0.40;0.40;;;;;;;;;;5018462;28;20049;-70
2023/10/12 03:25:56;;;;;;;3.03;2.92;;;;;;;;;;5027087;28;20041;-70
2023/10/12 03:28:30;;;;;;;7.55;7.10;;;;;;;;;;5025252;28;20499;-70
2023/10/12 03:33:54;;;;;;;0.52;0.52;;;;;;;;;;5023972;28;20088;-70
2023/10/12 03:36:26;;;;;;;13.30;12.40;;;;;;;;;;5023085;28;20140;-70
2023/10/12 03:44:49;;;;;;;4.93;4.63;;;;;;;;;;5023381;28;20038;-70
2023/10/12 03:47:29;;;;;;;0.10;0.10;;;;;;;;;;5018934;28;20101;-70
2023/10/12 03:50:05;;;;;;;2.53;1.83;;;;;;;;;;5024237;28;20403;-70
2023/10/12 03:52:39;;;;;;;0.00;0.00;;;;;;;;;;5021150;28;20046;-70
2023/10/12 04:02:47;;;;;;;0.22;0.22;;;;;;;;;;5022318;28;20482;-70
2023/10/12 04:05:34;;;;;;;0.17;0.17;;;;;;;;;;5025223;28;20108;-70
2023/10/12 04:18:41;;;;;;;2.05;1.95;;;;;;;;;;5024808;28;20052;-70
2023/10/12 04:21:10;;;;;;;0.08;0.08;;;;;;;;;;5023863;28;20046;-70
2023/10/12 04:29:08;;;;;;;1.25;1.00;;;;;;;;;;5024760;28;20586;-69
2023/10/12 04:31:49;;;;;;;0.30;0.30;;;;;;;;;;5023217;28;20285;-70
2023/10/12 04:34:23;;;;;;;0.20;0.20;;;;;;;;;;5018013;28;20080;-70
2023/10/12 04:37:07;;;;;;;2.45;2.25;;;;;;;;;;5026159;28;20534;-70
2023/10/12 04:39:37;;;;;;;1.45;1.35;;;;;;;;;;5022511;28;20065;-70
2023/10/12 04:42:12;;;;;;;2.90;0.30;;;;;;;;;;5023943;28;20046;-69
2023/10/12 04:44:52;;;;;;;2.20;1.88;;;;;;;;;;5022365;28;20088;-70
2023/10/12 04:47:24;;;;;;;1.20;1.10;;;;;;;;;;5021411;28;20053;-70
2023/10/12 04:52:24;;;;;;;2.92;1.17;;;;;;;;;;5021995;28;20049;-70
2023/10/12 04:58:11;;;;;;;2.13;0.43;;;;;;;;;;5022656;28;20056;-70
2023/10/12 05:00:55;;;;;;;1.02;1.02;;;;;;;;;;5023411;28;20081;-70
2023/10/12 05:03:25;;;;;;;0.15;0.15;;;;;;;;;;5023981;28;20091;-70
2023/10/12 05:06:15;;;;;;;0.50;0.50;;;;;;;;;;5021116;28;20103;-70
2023/10/12 05:08:42;;;;;;;0.63;0.63;;;;;;;;;;5020384;28;20064;-70
2023/10/12 05:11:10;;;;;;;1.33;1.17;;;;;;;;;;5020596;28;20045;-70
2023/10/12 05:13:43;;;;;;;1.92;1.42;;;;;;;;;;5020978;28;20053;-71
2023/10/12 05:16:14;;;;;;;3.33;3.17;;;;;;;;;;5020031;28;20128;-70
2023/10/12 05:18:42;;;;;;;0.82;0.82;;;;;;;;;;5017778;28;20088;-70
2023/10/12 05:21:10;;;;;;;4.88;2.13;;;;;;;;;;5017283;28;20117;-70
2023/10/12 05:23:38;;;;;;;0.93;0.93;;;;;;;;;;5014746;28;20132;-70
2023/10/12 05:28:35;;;;;;;1.33;1.25;;;;;;;;;;5019404;28;20240;-69
2023/10/12 05:36:11;;;;;;;3.35;2.53;;;;;;;;;;5013972;28;20053;-70
2023/10/12 05:38:40;;;;;;;0.30;0.30;;;;;;;;;;5017568;28;20049;-70
2023/10/12 05:41:08;;;;;;;0.20;0.20;;;;;;;;;;5020088;28;21925;-70
2023/10/12 05:43:40;;;;;;;0.35;0.35;;;;;;;;;;5017882;28;20396;-70
2023/10/12 05:46:15;;;;;;;0.20;0.17;;;;;;;;;;5021133;28;20523;-71
2023/10/12 05:48:47;;;;;;;0.40;0.40;;;;;;;;;;5017353;28;20065;-71
2023/10/12 05:51:18;;;;;;;1.60;1.55;;;;;;;;;;5015157;28;20144;-70
2023/10/12 05:53:48;;;;;;;0.20;0.20;;;;;;;;;;5020335;28;20041;-70
2023/10/12 05:56:18;;;;;;;0.98;0.73;;;;;;;;;;5017403;28;20050;-70
2023/10/12 05:58:46;;;;;;;2.53;1.65;;;;;;;;;;5016129;28;20052;-70
2023/10/12 06:01:31;;;;;;;1.05;0.88;;;;;;;;;;5013060;28;20060;-70
2023/10/12 06:04:08;;;;;;;9.07;8.48;;;;;;;;;;5015997;28;20045;-70
2023/10/12 06:06:41;;;;;;;0.10;0.10;;;;;;;;;;5015099;28;20054;-69
2023/10/12 06:09:13;;;;;;;0.00;0.00;;;;;;;;;;5023911;28;20476;-70
2023/10/12 06:11:44;;;;;;;0.10;0.10;;;;;;;;;;5021034;28;20326;-70
2023/10/12 06:14:14;;;;;;;1.08;1.08;;;;;;;;;;5015756;28;20103;-70
2023/10/12 06:16:42;;;;;;;0.00;0.00;;;;;;;;;;5014365;28;20049;-70
2023/10/12 06:21:57;;;;;;;0.95;0.95;;;;;;;;;;5017165;28;20566;-69
2023/10/12 06:24:35;;;;;;;0.20;0.20;;;;;;;;;;5018493;28;20045;-70
2023/10/12 06:27:22;;;;;;;9.75;7.97;;;;;;;;;;5023440;28;20065;-70
2023/10/12 06:29:51;;;;;;;1.15;1.15;;;;;;;;;;5021906;28;20499;-70
2023/10/12 06:32:19;;;;;;;0.05;0.05;;;;;;;;;;5025894;28;20748;-70
2023/10/12 06:37:59;;;;;;;0.00;0.00;;;;;;;;;;5027103;28;20511;-70
2023/10/12 06:45:51;;;;;;;0.08;0.08;;;;;;;;;;5018345;28;20511;-70
2023/10/12 06:51:23;;;;;;;1.85;1.75;;;;;;;;;;5018801;28;20116;-70
2023/10/12 06:53:53;;;;;;;0.20;0.20;;;;;;;;;;5023539;28;20033;-70
2023/10/12 07:01:39;;;;;;;10.90;10.02;;;;;;;;;;5018915;28;20044;-70
2023/10/12 07:04:13;;;;;;;0.20;0.20;;;;;;;;;;5028753;28;20047;-71
2023/10/12 07:06:48;;;;;;;0.10;0.10;;;;;;;;;;5023731;28;20056;-71
2023/10/12 07:09:15;;;;;;;0.80;0.80;;;;;;;;;;5024911;28;20506;-70
2023/10/12 07:11:43;;;;;;;12.90;11.82;;;;;;;;;;5020882;28;20061;-69
2023/10/12 07:14:12;;;;;;;0.55;0.55;;;;;;;;;;5020629;28;20049;-70
2023/10/12 07:16:52;;;;;;;0.20;0.20;;;;;;;;;;5017432;28;20053;-70
2023/10/12 07:19:22;;;;;;;0.15;0.15;;;;;;;;;;5029484;28;20558;-71
2023/10/12 07:21:54;;;;;;;0.50;0.50;;;;;;;;;;5025831;28;20428;-71
2023/10/12 07:24:33;;;;;;;0.10;0.10;;;;;;;;;;5022554;28;20045;-71
2023/10/12 07:27:11;;;;;;;0.35;0.30;;;;;;;;;;5016977;28;20046;-71
2023/10/12 07:29:47;;;;;;;0.20;0.20;;;;;;;;;;5018411;28;20670;-70
2023/10/12 07:32:24;;;;;;;2.95;1.02;;;;;;;;;;5018738;28;20132;-71
2023/10/12 07:34:54;;;;;;;0.20;0.20;;;;;;;;;;5021110;28;20057;-71
2023/10/12 07:37:22;;;;;;;0.98;0.90;;;;;;;;;;5017284;28;20060;-71
2023/10/12 07:39:54;;;;;;;0.17;0.17;;;;;;;;;;5020448;28;20056;-71
2023/10/12 07:42:27;;;;;;;0.00;0.00;;;;;;;;;;5021988;28;20050;-71
2023/10/12 07:44:56;;;;;;;5.30;4.85;;;;;;;;;;5025242;28;20049;-71
2023/10/12 07:47:40;;;;;;;0.15;0.15;;;;;;;;;;5018080;28;20077;-71
2023/10/12 07:50:12;;;;;;;1.23;1.02;;;;;;;;;;5023308;28;20411;-71
2023/10/12 07:52:49;;;;;;;2.72;2.63;;;;;;;;;;5019292;28;20393;-70
2023/10/12 07:55:18;;;;;;;1.75;1.73;;;;;;;;;;5021883;28;20067;-71
2023/10/12 07:57:47;;;;;;;0.52;0.52;;;;;;;;;;5021421;28;20449;-70
2023/10/12 08:13:16;;;;;;;0.15;0.15;;;;;;;;;;5025470;28;20060;-71
2023/10/12 08:29:17;;;;;;;2.28;2.17;;;;;;;;;;5021550;28;20042;-71
2023/10/12 08:31:45;;;;;;;0.55;0.22;;;;;;;;;;5025736;28;20037;-71
2023/10/12 08:39:37;;;;;;;0.10;0.10;;;;;;;;;;5019944;28;20072;-71
2023/10/12 08:44:51;;;;;;;0.00;0.00;;;;;;;;;;5026267;28;20145;-70
2023/10/12 08:48:08;;;;;;;0.20;0.20;;;;;;;;;;5021076;28;20049;-70
2023/10/12 08:52:50;;;;;;;2.25;2.08;;;;;;;;;;5020644;28;20049;-69
2023/10/12 08:55:25;;;;;;;0.30;0.30;;;;;;;;;;5015505;28;20053;-70
2023/10/12 08:58:12;;;;;;;0.00;0.00;;;;;;;;;;5013337;28;20054;-71
2023/10/12 09:00:44;;;;;;;12.45;11.45;;;;;;;;;;5013781;28;20041;-71
2023/10/12 09:05:54;;;;;;;0.10;0.10;;;;;;;;;;5016825;28;20056;-71
2023/10/12 09:11:02;;;;;;;1.85;0.57;;;;;;;;;;5018243;28;20655;-72
2023/10/12 09:13:33;;;;;;;0.70;0.70;;;;;;;;;;5022417;28;20045;-71
2023/10/12 09:16:02;;;;;;;0.55;0.55;;;;;;;;;;5014299;28;20403;-71
2023/10/12 09:18:33;;;;;;;0.50;0.50;;;;;;;;;;5013605;28;20045;-71
2023/10/12 09:21:18;;;;;;;2.05;1.95;;;;;;;;;;5016390;28;20504;-71
2023/10/12 09:23:58;;;;;;;0.30;0.30;;;;;;;;;;5015523;28;20065;-70
2023/10/12 09:26:34;;;;;;;20.73;19.20;;;;;;;;;;5019057;28;20052;-69
2023/10/12 09:29:09;;;;;;;1.20;1.20;;;;;;;;;;5020804;28;20108;-70
2023/10/12 09:36:38;;;;;;;2.28;2.17;;;;;;;;;;5016544;28;20450;-71
2023/10/12 09:39:14;;;;;;;1.45;0.70;;;;;;;;;;5015906;28;20402;-71
2023/10/12 09:41:44;;;;;;;44.30;41.65;;;;;;;;;;5016583;28;20049;-71
2023/10/12 09:44:13;;;;;;;60.97;56.72;;;;;;;;;;5014564;28;20041;-71
2023/10/12 09:46:47;;;;;;;0.10;0.10;;;;;;;;;;5018811;28;20069;-71
2023/10/12 09:49:22;;;;;;;0.20;0.20;;;;;;;;;;5016173;28;20077;-73
2023/10/12 09:51:50;;;;;;;0.00;0.00;;;;;;;;;;5017727;28;20393;-71
2023/10/12 09:54:27;;;;;;;1.00;0.60;;;;;;;;;;5023828;28;20064;-71
2023/10/12 09:57:04;;;;;;;0.30;0.30;;;;;;;;;;5021266;28;20057;-71
2023/10/12 09:59:38;;;;;;;1.08;1.08;;;;;;;;;;5015986;28;20053;-71
2023/10/12 10:02:27;;;;;;;12.00;9.65;;;;;;;;;;5017604;28;20045;-71
2023/10/12 10:05:01;;;;;;;0.17;0.17;;;;;;;;;;5015982;28;20077;-71
2023/10/12 10:07:36;;;;;;;1.02;0.85;;;;;;;;;;5024270;28;20518;-71
2023/10/12 10:10:16;;;;;;;0.47;0.47;;;;;;;;;;5026066;28;20060;-71
2023/10/12 10:12:44;;;;;;;0.20;0.20;;;;;;;;;;5027344;28;20053;-71
2023/10/12 10:15:20;;;;;;;2.45;2.35;;;;;;;;;;5019350;28;20251;-72
2023/10/12 10:17:56;;;;;;;3.33;3.20;;;;;;;;;;5016806;28;20116;-71
2023/10/12 10:23:03;;;;;;;0.00;0.00;;;;;;;;;;5027910;28;20045;-71
2023/10/12 10:25:35;;;;;;;0.00;0.00;;;;;;;;;;5023131;28;20817;-70
2023/10/12 10:28:10;;;;;;;0.10;0.10;;;;;;;;;;5024272;28;20301;-71
2023/10/12 10:30:42;;;;;;;0.00;0.00;;;;;;;;;;5020201;28;20435;-70
2023/10/12 10:33:15;;;;;;;0.00;0.00;;;;;;;;;;5010311;28;20049;-71
2023/10/12 10:36:10;;;;;;;6.30;5.13;;;;;;;;;;5038375;28;20465;-71
2023/10/12 10:41:23;;;;;;;0.05;0.05;;;;;;;;;;5034056;28;20046;-72
2023/10/12 10:43:53;;;;;;;0.00;0.00;;;;;;;;;;5018052;28;20046;-72
2023/10/12 10:46:26;;;;;;;0.10;0.10;;;;;;;;;;5015644;28;20053;-71
2023/10/12 10:48:55;;;;;;;0.00;0.00;;;;;;;;;;5011502;28;20044;-71
2023/10/12 10:51:28;;;;;;;0.00;0.00;;;;;;;;;;5012234;28;20049;-70
2023/10/12 10:53:56;;;;;;;0.05;0.05;;;;;;;;;;5013179;28;20049;-70
2023/10/12 10:56:41;;;;;;;0.00;0.00;;;;;;;;;;5009019;28;20083;-71
2023/10/12 10:59:13;;;;;;;0.20;0.20;;;;;;;;;;5010570;28;20049;-72
2023/10/12 11:01:46;;;;;;;0.00;0.00;;;;;;;;;;5007892;28;20510;-70
2023/10/12 11:07:04;;;;;;;0.00;0.00;;;;;;;;;;5015443;28;20073;-71
2023/10/12 11:09:54;;;;;;;1.55;0.38;;;;;;;;;;5014904;28;20104;-71
2023/10/12 11:12:25;;;;;;;0.00;0.00;;;;;;;;;;5012208;28;20447;-71
2023/10/12 11:15:07;;;;;;;0.28;0.28;;;;;;;;;;5021536;28;20064;-70
2023/10/12 11:17:40;;;;;;;0.10;0.10;;;;;;;;;;5020663;28;20056;-70
2023/10/12 11:20:27;;;;;;;0.00;0.00;;;;;;;;;;5017502;28;20053;-71
2023/10/12 11:22:55;;;;;;;0.10;0.10;;;;;;;;;;5021090;28;20813;-72
2023/10/12 11:25:26;;;;;;;0.10;0.10;;;;;;;;;;5019540;28;20773;-72
2023/10/12 11:27:54;;;;;;;0.00;0.00;;;;;;;;;;5023389;28;20042;-72
2023/10/12 11:30:34;;;;;;;0.00;0.00;;;;;;;;;;5024202;28;20046;-71
2023/10/12 11:33:09;;;;;;;0.10;0.10;;;;;;;;;;5024138;28;20565;-72
2023/10/12 11:35:41;;;;;;;0.10;0.10;;;;;;;;;;5025419;28;20049;-72
2023/10/12 11:38:17;;;;;;;0.00;0.00;;;;;;;;;;5020394;28;20586;-72
2023/10/12 11:40:48;;;;;;;0.00;0.00;;;;;;;;;;5023393;28;20064;-71
2023/10/12 11:43:16;;;;;;;0.00;0.00;;;;;;;;;;5018445;28;20092;-72
2023/10/12 11:45:54;;;;;;;11.43;10.45;;;;;;;;;;5019664;28;20422;-72
2023/10/12 11:48:22;;;;;;;0.10;0.10;;;;;;;;;;5019906;28;20053;-71
2023/10/12 11:50:50;;;;;;;4.72;4.47;;;;;;;;;;5019237;28;20511;-72
2023/10/12 11:53:18;;;;;;;0.00;0.00;;;;;;;;;;5021819;28;20053;-71
2023/10/12 11:55:48;;;;;;;0.00;0.00;;;;;;;;;;5019025;28;20049;-72
2023/10/12 11:58:19;;;;;;;0.00;0.00;;;;;;;;;;5022630;28;20049;-72
2023/10/12 12:00:50;;;;;;;1.92;0.73;;;;;;;;;;5019267;28;20136;-71
2023/10/12 12:03:18;;;;;;;0.00;0.00;;;;;;;;;;5026518;28;20052;-72
2023/10/12 12:05:50;;;;;;;0.00;0.00;;;;;;;;;;5024304;28;20049;-71
2023/10/12 12:08:18;;;;;;;0.00;0.00;;;;;;;;;;5019534;28;20128;-71
2023/10/12 12:13:21;;;;;;;0.00;0.00;;;;;;;;;;5028428;28;20055;-71
2023/10/12 12:15:49;;;;;;;0.00;0.00;;;;;;;;;;5019747;28;20049;-70
2023/10/12 12:18:21;;;;;;;0.00;0.00;;;;;;;;;;5020987;28;20495;-70
2023/10/12 12:20:53;;;;;;;0.17;0.17;;;;;;;;;;5013862;28;20137;-70
2023/10/12 12:23:28;;;;;;;0.10;0.10;;;;;;;;;;5019013;28;20092;-71
2023/10/12 12:26:07;;;;;;;0.00;0.00;;;;;;;;;;5016712;28;20112;-71
2023/10/12 12:28:43;;;;;;;0.15;0.15;;;;;;;;;;5018262;28;20056;-71
2023/10/12 12:31:14;;;;;;;0.00;0.00;;;;;;;;;;5021207;28;20407;-71
2023/10/12 12:33:45;;;;;;;0.13;0.13;;;;;;;;;;5017912;28;20508;-71
2023/10/12 12:36:21;;;;;;;0.00;0.00;;;;;;;;;;5018580;28;20049;-71
2023/10/12 12:38:57;;;;;;;0.00;0.00;;;;;;;;;;5022733;28;20049;-72
2023/10/12 12:41:25;;;;;;;2.33;1.58;;;;;;;;;;5019888;28;20048;-72
2023/10/12 12:43:53;;;;;;;0.75;0.75;;;;;;;;;;5020726;28;20052;-70
2023/10/12 12:46:21;;;;;;;0.00;0.00;;;;;;;;;;5019585;28;20048;-71
2023/10/12 12:48:52;;;;;;;0.00;0.00;;;;;;;;;;5016978;28;20058;-71
2023/10/12 12:51:19;;;;;;;0.10;0.10;;;;;;;;;;5015201;28;20523;-72
2023/10/12 12:53:48;;;;;;;0.00;0.00;;;;;;;;;;5015753;28;20049;-72
2023/10/12 12:56:20;;;;;;;0.00;0.00;;;;;;;;;;5017180;28;20049;-72
2023/10/12 12:58:49;;;;;;;0.10;0.10;;;;;;;;;;5019614;28;20868;-71
2023/10/12 13:01:17;;;;;;;0.00;0.00;;;;;;;;;;5018193;28;20049;-72
2023/10/12 13:03:45;;;;;;;0.00;0.00;;;;;;;;;;5015901;28;20050;-71
2023/10/12 13:06:16;;;;;;;18.80;0.55;;;;;;;;;;5022769;28;20050;-72
2023/10/12 13:08:43;;;;;;;0.00;0.00;;;;;;;;;;5022354;28;20056;-70
2023/10/12 13:11:11;;;;;;;0.00;0.00;;;;;;;;;;5018728;28;20058;-72
2023/10/12 13:13:39;;;;;;;0.08;0.08;;;;;;;;;;5020828;28;20086;-72
2023/10/12 13:16:12;;;;;;;0.00;0.00;;;;;;;;;;5021339;28;20630;-72
2023/10/12 13:18:46;;;;;;;0.00;0.00;;;;;;;;;;5022470;28;20049;-72
2023/10/12 13:21:17;;;;;;;0.10;0.10;;;;;;;;;;5021166;28;20041;-72
2023/10/12 13:23:45;;;;;;;0.15;0.15;;;;;;;;;;5022381;28;20053;-71
2023/10/12 13:26:17;;;;;;;0.00;0.00;;;;;;;;;;5018991;28;20042;-72
2023/10/12 13:28:44;;;;;;;0.00;0.00;;;;;;;;;;5017806;28;20042;-72
2023/10/12 13:31:12;;;;;;;3.95;3.65;;;;;;;;;;5016258;28;20053;-72
2023/10/12 13:33:41;;;;;;;0.00;0.00;;;;;;;;;;5018693;28;20053;-72
2023/10/12 13:36:10;;;;;;;0.03;0.03;;;;;;;;;;5021916;28;20080;-72
2023/10/12 13:38:39;;;;;;;0.00;0.00;;;;;;;;;;5023257;28;20053;-72
2023/10/12 13:41:10;;;;;;;0.00;0.00;;;;;;;;;;5018803;28;20099;-72
2023/10/12 13:43:39;;;;;;;0.10;0.10;;;;;;;;;;5014870;28;20069;-73
2023/10/12 13:46:12;;;;;;;0.00;0.00;;;;;;;;;;5027589;28;20042;-72
2023/10/12 13:48:40;;;;;;;0.20;0.15;;;;;;;;;;5020464;28;20042;-71
2023/10/12 13:51:12;;;;;;;0.00;0.00;;;;;;;;;;5020609;28;20523;-72
2023/10/12 13:53:41;;;;;;;1.77;1.55;;;;;;;;;;5021178;28;20068;-72
2023/10/12 13:56:09;;;;;;;0.73;0.35;;;;;;;;;;5020514;28;20064;-72
2023/10/12 13:58:39;;;;;;;0.17;0.17;;;;;;;;;;5024551;28;20054;-72
2023/10/12 14:01:14;;;;;;;2.30;2.20;;;;;;;;;;5027044;28;20068;-71
2023/10/12 14:03:53;;;;;;;0.00;0.00;;;;;;;;;;5023398;28;20161;-72
2023/10/12 14:06:24;;;;;;;0.03;0.03;;;;;;;;;;5028280;28;20045;-72
2023/10/12 14:08:52;;;;;;;0.00;0.00;;;;;;;;;;5019460;28;20302;-72
2023/10/12 14:11:20;;;;;;;0.00;0.00;;;;;;;;;;5025004;28;20497;-72
2023/10/12 14:13:50;;;;;;;0.00;0.00;;;;;;;;;;5016917;28;20057;-71
2023/10/12 14:16:17;;;;;;;0.10;0.10;;;;;;;;;;5025913;28;20049;-72
2023/10/12 14:18:49;;;;;;;0.05;0.05;;;;;;;;;;5018705;28;20397;-71
2023/10/12 14:21:18;;;;;;;0.00;0.00;;;;;;;;;;5018672;28;20070;-72
2023/10/12 14:23:48;;;;;;;0.10;0.10;;;;;;;;;;5019436;28;20507;-72
2023/10/12 14:26:17;;;;;;;0.00;0.00;;;;;;;;;;5017485;28;20192;-72
2023/10/12 14:28:47;;;;;;;0.10;0.10;;;;;;;;;;5021576;28;20643;-71
2023/10/12 14:31:16;;;;;;;0.00;0.00;;;;;;;;;;5016622;28;20061;-71
2023/10/12 14:33:43;;;;;;;0.00;0.00;;;;;;;;;;5019444;28;20056;-72
2023/10/12 14:36:11;;;;;;;0.00;0.00;;;;;;;;;;5017446;28;20128;-72
2023/10/12 14:38:44;;;;;;;0.00;0.00;;;;;;;;;;5019072;28;20434;-72
2023/10/12 14:41:16;;;;;;;0.00;0.00;;;;;;;;;;5017557;28;20049;-72
2023/10/12 14:43:48;;;;;;;0.00;0.00;;;;;;;;;;5024871;28;21204;-73
2023/10/12 14:46:19;;;;;;;0.10;0.10;;;;;;;;;;5021511;28;20063;-72
2023/10/12 14:48:51;;;;;;;0.00;0.00;;;;;;;;;;5023572;28;20046;-72
2023/10/12 14:51:29;;;;;;;0.10;0.10;;;;;;;;;;5017782;28;20057;-71
2023/10/12 14:53:56;;;;;;;0.00;0.00;;;;;;;;;;5024006;28;20522;-71
2023/10/12 14:56:27;;;;;;;0.00;0.00;;;;;;;;;;5027398;28;20554;-72
2023/10/12 14:58:56;;;;;;;0.13;0.13;;;;;;;;;;5022762;28;20065;-70
2023/10/12 15:01:27;;;;;;;0.20;0.20;;;;;;;;;;5023644;28;20052;-71
2023/10/12 15:03:56;;;;;;;0.10;0.10;;;;;;;;;;5023614;28;20120;-72
2023/10/12 15:06:24;;;;;;;0.32;0.32;;;;;;;;;;5020595;28;20049;-72
2023/10/12 15:08:55;;;;;;;0.00;0.00;;;;;;;;;;5017238;28;20042;-72
2023/10/12 15:11:23;;;;;;;0.00;0.00;;;;;;;;;;5020066;28;20057;-72
2023/10/12 15:13:50;;;;;;;0.00;0.00;;;;;;;;;;5020028;28;20136;-71
2023/10/12 15:16:18;;;;;;;0.00;0.00;;;;;;;;;;5021642;28;20050;-71
2023/10/12 15:18:46;;;;;;;0.17;0.17;;;;;;;;;;5018988;28;20096;-70
2023/10/12 15:21:15;;;;;;;0.85;0.85;;;;;;;;;;5021577;28;20406;-71
2023/10/12 15:23:45;;;;;;;0.00;0.00;;;;;;;;;;5018278;28;20447;-71
2023/10/12 15:26:16;;;;;;;0.00;0.00;;;;;;;;;;5022732;28;20483;-71
2023/10/12 15:28:47;;;;;;;0.20;0.20;;;;;;;;;;5022695;28;20057;-72
2023/10/12 15:31:16;;;;;;;0.00;0.00;;;;;;;;;;5023486;28;20400;-71
2023/10/12 15:33:44;;;;;;;0.00;0.00;;;;;;;;;;5021478;28;20046;-71
2023/10/12 15:36:16;;;;;;;0.00;0.00;;;;;;;;;;5020298;28;20444;-70
2023/10/12 15:38:44;;;;;;;0.10;0.10;;;;;;;;;;5023914;28;20053;-71
2023/10/12 15:41:11;;;;;;;0.10;0.10;;;;;;;;;;5027847;28;20405;-71
2023/10/12 15:43:39;;;;;;;0.43;0.43;;;;;;;;;;5028134;28;20542;-72
2023/10/12 15:46:11;;;;;;;0.22;0.22;;;;;;;;;;5020320;28;20516;-71
2023/10/12 15:48:42;;;;;;;0.32;0.20;;;;;;;;;;5022971;28;20085;-71
2023/10/12 15:51:19;;;;;;;0.25;0.25;;;;;;;;;;5025271;28;20046;-71
2023/10/12 15:53:48;;;;;;;0.20;0.20;;;;;;;;;;5019577;28;20057;-71
2023/10/12 15:56:16;;;;;;;0.00;0.00;;;;;;;;;;5021806;28;20057;-71
2023/10/12 15:58:50;;;;;;;1.00;0.50;;;;;;;;;;5025071;28;20503;-76
2023/10/12 16:01:18;;;;;;;0.00;0.00;;;;;;;;;;5022833;28;20107;-76
2023/10/12 16:03:46;;;;;;;12.45;4.75;;;;;;;;;;5026295;28;20305;-76
2023/10/12 16:06:14;;;;;;;19.70;18.50;;;;;;;;;;5024686;28;20064;-75
2023/10/12 16:08:48;;;;;;;0.32;0.30;;;;;;;;;;5023839;28;20140;-76
2023/10/12 16:11:17;;;;;;;1.92;0.82;;;;;;;;;;5022079;28;20061;-76
2023/10/12 16:13:48;;;;;;;0.00;0.00;;;;;;;;;;5025687;28;20056;-76
2023/10/12 16:16:16;;;;;;;0.00;0.00;;;;;;;;;;5024815;28;20131;-76
2023/10/12 16:18:44;;;;;;;0.00;0.00;;;;;;;;;;5025325;28;20137;-75
2023/10/12 16:21:12;;;;;;;0.00;0.00;;;;;;;;;;5023565;28;20341;-75
2023/10/12 16:23:40;;;;;;;0.00;0.00;;;;;;;;;;5024520;28;20091;-75
2023/10/12 16:26:09;;;;;;;1.75;1.65;;;;;;;;;;5026661;28;20103;-75
2023/10/12 16:28:38;;;;;;;0.00;0.00;;;;;;;;;;5025931;28;20500;-75
2023/10/12 16:31:06;;;;;;;0.17;0.17;;;;;;;;;;5020226;28;20056;-75
2023/10/12 16:33:38;;;;;;;0.00;0.00;;;;;;;;;;5019229;28;20388;-75
2023/10/12 16:36:07;;;;;;;0.50;0.50;;;;;;;;;;5018852;28;20107;-75
2023/10/12 16:38:34;;;;;;;0.75;0.75;;;;;;;;;;5023911;28;20045;-75
2023/10/12 16:41:07;;;;;;;0.00;0.00;;;;;;;;;;5024754;28;20423;-75
2023/10/12 16:43:36;;;;;;;1.58;1.27;;;;;;;;;;5025922;28;20054;-75
2023/10/12 16:46:05;;;;;;;0.32;0.32;;;;;;;;;;5026572;28;20573;-75
2023/10/12 16:48:33;;;;;;;0.43;0.43;;;;;;;;;;5024735;28;20504;-75
2023/10/12 16:51:03;;;;;;;0.45;0.30;;;;;;;;;;5022335;28;20480;-75
2023/10/12 16:53:31;;;;;;;0.90;0.88;;;;;;;;;;5022793;28;20140;-75
2023/10/12 16:55:58;;;;;;;0.63;0.63;;;;;;;;;;5021373;28;20072;-75
2023/10/12 16:58:27;;;;;;;0.40;0.40;;;;;;;;;;5012977;28;20107;-75
2023/10/12 17:00:56;;;;;;;0.00;0.00;;;;;;;;;;5016383;28;20068;-75
2023/10/12 17:03:23;;;;;;;0.00;0.00;;;;;;;;;;5018292;28;20107;-75
2023/10/12 17:05:58;;;;;;;0.10;0.10;;;;;;;;;;5016378;28;20065;-75
2023/10/12 17:08:31;;;;;;;0.10;0.10;;;;;;;;;;5006468;28;20041;-75
2023/10/12 17:11:00;;;;;;;0.35;0.35;;;;;;;;;;5012737;28;20468;-75
2023/10/12 17:13:27;;;;;;;2.55;0.75;;;;;;;;;;5023416;28;20073;-75
2023/10/12 17:15:56;;;;;;;0.38;0.28;;;;;;;;;;5022871;28;20091;-75
2023/10/12 17:18:24;;;;;;;0.00;0.00;;;;;;;;;;5023502;28;20132;-75
2023/10/12 17:20:53;;;;;;;0.00;0.00;;;;;;;;;;5023238;28;20053;-76
2023/10/12 17:23:27;;;;;;;0.15;0.15;;;;;;;;;;5019713;28;20052;-75
2023/10/12 17:25:58;;;;;;;0.00;0.00;;;;;;;;;;5021266;28;20053;-74
2023/10/12 17:28:29;;;;;;;0.00;0.00;;;;;;;;;;5011306;28;20057;-75
2023/10/12 17:30:58;;;;;;;;;;;;;;;;;;5017714;28;20049;-74
2023/10/12 17:33:27;;;;;;;0.03;0.03;;;;;;;;;;5013105;28;19980;-74
2023/10/12 17:35:55;;;;;;;0.00;0.00;;;;;;;;;;5015144;28;20049;-74
2023/10/12 17:38:22;;;;;;;0.20;0.13;;;;;;;;;;5019607;28;20703;-75
2023/10/12 17:40:50;;;;;;;0.00;0.00;;;;;;;;;;5024611;28;20045;-75
2023/10/12 17:43:17;;;;;;;0.00;0.00;;;;;;;;;;5025702;28;20046;-76